createdAt,value
2022-08-19T00:01:38.633Z,23.72
2022-08-19T00:07:40.544Z,23.79
2022-08-19T00:13:42.460Z,23.87
2022-08-19T00:19:44.268Z,23.74
2022-08-19T00:25:48.748Z,23.88
2022-08-19T00:31:54.611Z,23.71
2022-08-19T00:37:57.196Z,23.75
2022-08-19T00:44:05.539Z,23.69
2022-08-19T00:50:09.536Z,23.82
2022-08-19T00:56:12.007Z,23.78
2022-08-19T01:02:13.798Z,23.50
2022-08-19T01:08:18.237Z,23.83
2022-08-19T01:14:20.839Z,23.77
2022-08-19T01:20:24.422Z,23.70
2022-08-19T01:26:27.540Z,23.79
2022-08-19T01:32:33.939Z,23.68
2022-08-19T01:38:44.099Z,23.55
2022-08-19T01:44:46.801Z,23.77
2022-08-19T01:50:49.102Z,23.76
2022-08-19T01:56:54.272Z,23.70
2022-08-19T02:02:56.037Z,23.65
2022-08-19T02:08:58.533Z,23.72
2022-08-19T02:15:00.979Z,23.72
2022-08-19T02:21:02.715Z,23.69
2022-08-19T02:27:05.864Z,23.71
2022-08-19T02:33:07.624Z,23.72
2022-08-19T02:39:10.018Z,23.66
2022-08-19T02:45:12.078Z,23.72
2022-08-19T02:51:21.814Z,23.71
2022-08-19T02:57:23.896Z,23.46
2022-08-19T03:03:25.893Z,23.50
2022-08-19T03:09:27.725Z,23.71
2022-08-19T03:15:29.589Z,23.71
2022-08-19T03:21:33.754Z,23.70
2022-08-19T03:27:35.995Z,23.60
2022-08-19T03:33:39.778Z,23.68
2022-08-19T03:39:43.315Z,23.66
2022-08-19T03:45:45.102Z,23.59
2022-08-19T03:51:49.141Z,23.65
2022-08-19T03:57:50.883Z,23.58
2022-08-19T04:03:53.486Z,23.67
2022-08-19T04:09:56.275Z,23.51
2022-08-19T04:15:58.007Z,23.67
2022-08-19T04:21:59.820Z,23.74
2022-08-19T04:28:01.554Z,23.58
2022-08-19T04:34:08.166Z,23.79
2022-08-19T04:40:28.743Z,23.80
2022-08-19T04:46:40.539Z,23.35
2022-08-19T04:52:54.442Z,23.11
2022-08-19T04:58:57.907Z,23.30
2022-08-19T05:05:01.591Z,23.56
2022-08-19T05:11:14.166Z,24.26
2022-08-19T05:17:37.498Z,24.55
2022-08-19T05:23:38.157Z,24.91
2022-08-19T05:29:40.212Z,25.10
2022-08-19T05:35:42.231Z,25.09
2022-08-19T05:41:45.360Z,24.74
2022-08-19T05:47:47.147Z,25.13
2022-08-19T05:53:48.914Z,24.62
2022-08-19T05:59:57.631Z,24.65
2022-08-19T06:06:01.241Z,25.02
2022-08-19T06:12:04.039Z,24.98
2022-08-19T06:18:05.821Z,24.89
2022-08-19T06:24:10.280Z,24.63
2022-08-19T06:30:13.424Z,24.76
2022-08-19T06:36:35.050Z,24.73
2022-08-19T06:42:36.873Z,24.92
2022-08-19T06:48:45.682Z,24.73
2022-08-19T06:54:56.083Z,25.33
2022-08-19T07:01:04.454Z,25.21
2022-08-19T07:07:21.005Z,25.27
2022-08-19T07:13:23.312Z,25.13
2022-08-19T07:19:30.399Z,25.16
2022-08-19T07:25:33.426Z,25.12
2022-08-19T07:31:38.261Z,25.21
2022-08-19T07:37:45.377Z,25.24
2022-08-19T07:43:48.201Z,25.21
2022-08-19T07:49:49.915Z,25.26
2022-08-19T08:13:09.170Z,25.14
2022-08-19T08:19:25.778Z,25.11
2022-08-19T08:25:27.813Z,24.97
2022-08-19T08:31:35.124Z,25.00
2022-08-19T08:37:37.731Z,25.13
2022-08-19T08:43:44.628Z,25.00
2022-08-19T08:50:15.607Z,25.10
2022-08-19T08:56:18.439Z,25.01
2022-08-19T09:02:20.765Z,25.08
2022-08-19T09:08:51.331Z,25.12
2022-08-19T09:15:05.640Z,25.11
2022-08-19T09:21:08.791Z,25.01
2022-08-19T09:27:18.403Z,25.14
2022-08-19T09:33:21.004Z,25.01
2022-08-19T09:39:23.029Z,25.03
2022-08-19T09:45:24.795Z,25.10
2022-08-19T09:51:29.412Z,24.97
2022-08-19T09:57:31.164Z,24.99
2022-08-19T10:03:34.219Z,25.03
2022-08-19T10:09:36.046Z,24.86
2022-08-19T10:15:47.571Z,24.89
2022-08-19T10:21:49.981Z,24.74
2022-08-19T10:27:51.905Z,24.96
2022-08-19T10:33:59.245Z,24.95
2022-08-19T10:40:07.029Z,24.99
2022-08-19T10:46:13.754Z,24.99
2022-08-19T10:52:39.023Z,24.88
2022-08-19T10:58:42.774Z,25.02
2022-08-19T11:04:44.478Z,24.93
2022-08-19T11:10:50.552Z,24.83
2022-08-19T11:16:56.871Z,25.00
2022-08-19T11:22:58.592Z,24.94
2022-08-19T11:29:01.617Z,24.98
2022-08-19T11:35:03.614Z,24.95
2022-08-19T11:41:10.814Z,25.05
2022-08-19T11:47:12.547Z,25.14
2022-08-19T11:53:14.249Z,25.22
2022-08-19T11:59:16.893Z,25.22
2022-08-19T12:05:18.872Z,25.12
2022-08-19T12:11:21.091Z,25.16
2022-08-19T12:17:23.427Z,25.17
2022-08-19T12:23:25.113Z,25.17
2022-08-19T12:29:30.362Z,25.14
2022-08-19T12:35:32.923Z,25.09
2022-08-19T12:41:34.598Z,25.12
2022-08-19T12:47:38.021Z,25.09
2022-08-19T12:53:43.457Z,25.12
2022-08-19T12:59:45.754Z,25.12
2022-08-19T13:05:47.417Z,25.07
2022-08-19T13:11:49.121Z,25.18
2022-08-19T13:17:52.798Z,25.21
2022-08-19T13:23:55.310Z,25.07
2022-08-19T13:30:15.807Z,25.09
2022-08-19T13:36:17.493Z,25.06
2022-08-19T13:42:20.272Z,25.16
2022-08-19T13:48:22.798Z,25.18
2022-08-19T13:54:24.614Z,25.14
2022-08-19T14:00:29.106Z,25.21
2022-08-19T14:06:30.910Z,25.11
2022-08-19T14:12:33.194Z,25.12
2022-08-19T14:18:35.085Z,25.22
2022-08-19T14:24:40.803Z,25.21
2022-08-19T14:30:49.670Z,25.25
2022-08-19T14:36:56.914Z,25.21
2022-08-19T14:43:04.958Z,25.26
2022-08-19T14:49:09.372Z,25.08
2022-08-19T14:55:11.546Z,25.26
2022-08-19T15:01:14.199Z,25.21
2022-08-19T15:07:15.985Z,25.21
2022-08-19T15:13:17.917Z,25.17
2022-08-19T15:19:19.682Z,25.18
2022-08-19T15:25:21.997Z,25.30
2022-08-19T15:31:28.537Z,25.27
2022-08-19T15:37:30.901Z,25.27
2022-08-19T15:43:33.400Z,25.35
2022-08-19T15:49:35.142Z,25.30
2022-08-19T15:55:43.779Z,25.27
2022-08-19T16:02:03.861Z,25.31
2022-08-19T16:08:06.602Z,25.37
2022-08-19T16:14:09.567Z,25.20
2022-08-19T16:20:11.634Z,25.66
2022-08-19T16:26:15.457Z,25.46
2022-08-19T16:32:17.221Z,25.30
2022-08-19T16:38:18.989Z,25.33
2022-08-19T16:44:21.303Z,25.30
2022-08-19T16:50:39.311Z,25.27
2022-08-19T16:56:46.006Z,25.16
2022-08-19T17:02:47.784Z,25.19
2022-08-19T17:08:51.542Z,25.17
2022-08-19T17:14:53.278Z,25.03
2022-08-19T17:20:56.897Z,25.07
2022-08-19T17:26:58.641Z,25.10
2022-08-19T17:33:00.450Z,25.03
2022-08-19T17:39:04.399Z,24.95
2022-08-19T17:45:06.823Z,24.81
2022-08-19T17:51:33.064Z,24.98
2022-08-19T17:57:34.758Z,24.98
2022-08-19T18:03:36.498Z,24.88
2022-08-19T18:09:42.202Z,24.93
2022-08-19T18:15:44.562Z,24.68
2022-08-19T18:21:47.109Z,24.81
2022-08-19T18:27:49.049Z,24.87
2022-08-19T18:33:52.745Z,24.84
2022-08-19T18:40:13.207Z,24.81
2022-08-19T18:46:34.970Z,24.86
2022-08-19T18:52:40.035Z,24.81
2022-08-19T18:58:42.702Z,24.81
2022-08-19T19:04:45.689Z,24.86
2022-08-19T19:10:47.808Z,24.83
2022-08-19T19:16:52.868Z,24.69
2022-08-19T19:22:56.018Z,24.80
2022-08-19T19:29:00.026Z,24.77
2022-08-19T19:35:01.903Z,24.72
2022-08-19T19:41:04.762Z,24.79
2022-08-19T19:47:07.042Z,24.80
2022-08-19T19:53:08.773Z,24.70
2022-08-19T19:59:10.669Z,24.77
2022-08-19T20:05:13.340Z,24.78
2022-08-19T20:11:32.997Z,24.76
2022-08-19T20:17:42.415Z,24.71
2022-08-19T20:23:44.334Z,24.77
2022-08-19T20:30:13.879Z,24.72
2022-08-19T20:36:21.086Z,24.58
2022-08-19T20:42:23.016Z,24.69
2022-08-19T20:48:24.907Z,24.59
2022-08-19T20:54:27.473Z,24.66
2022-08-19T21:00:30.586Z,24.66
2022-08-19T21:06:32.326Z,24.64
2022-08-19T21:12:34.134Z,24.63
2022-08-19T21:18:36.048Z,24.63
2022-08-19T21:24:38.105Z,24.66
2022-08-19T21:30:41.510Z,24.63
2022-08-19T21:36:43.375Z,24.57
2022-08-19T21:42:46.127Z,24.58
2022-08-19T21:48:48.657Z,24.48
2022-08-19T21:54:50.549Z,24.58
2022-08-19T22:00:52.397Z,24.58
2022-08-19T22:06:54.227Z,24.56
2022-08-19T22:12:56.705Z,24.53
2022-08-19T22:18:59.482Z,24.50
2022-08-19T22:25:30.048Z,24.43
2022-08-19T22:31:33.883Z,24.50
2022-08-19T22:37:35.630Z,24.50
2022-08-19T22:43:37.590Z,24.51
2022-08-19T22:49:39.351Z,24.36
2022-08-19T22:55:41.061Z,24.42
2022-08-19T23:01:42.894Z,24.39
2022-08-19T23:07:44.724Z,24.32
2022-08-19T23:13:54.242Z,24.44
2022-08-19T23:19:55.946Z,24.34
2022-08-19T23:25:57.721Z,24.34
2022-08-19T23:31:59.391Z,24.43
2022-08-19T23:38:03.899Z,24.32
2022-08-19T23:44:06.684Z,24.39
2022-08-19T23:50:16.803Z,24.25
2022-08-19T23:56:18.526Z,24.36
